• Join FlightAware (Why Join?)
  • Login
  • US Flag 
06:39AM EDT


 

Airport Tracker/Info


-or-


 

Live Flight TrackerFlight Track Log ✈ SKW6377 ✈ 04-May-2013 ✈ KCPR - KDEN

Flight Track Log - Related Links

Times and Time Zones

All times are in EDT time to prevent confusion due to time zone crossing. See the SKW6377 flight status page for this flight to view local times or setup timezone preferences in your user account.

Time Position Orientation Groundspeed Altitude Reporting Facility
EDT Latitude Longitude Course Direction KTS MPH feet Rate Location/Type
02:51PM 42.8325 -106.2653 156° South 272 313 12,300  Level Denver Center
02:52PM 42.8526 -106.2667 180° South  Level FlightAware Approximate
02:53PM 42.7376 -106.2667 180° South  Level FlightAware Approximate
02:53PM 42.7233 -106.2619 179° South 335 386 14,700  Level Denver Center
02:54PM 42.6228 -106.2602 176° South  Level FlightAware Approximate
02:54PM 42.6283 -106.2597 179° South 354 407 16,900  Level Denver Center
02:55PM 42.5081 -106.2507 176° South  Level FlightAware Approximate
02:55PM 42.5272 -106.2578 179° South 376 433 18,900  Level Denver Center
02:56PM 42.3931 -106.2500 180° South  Level FlightAware Approximate
02:56PM 42.4100 -106.2564 179° South 379 436 21,100  Level Denver Center
02:57PM 42.3069 -106.2542 179° South 387 445 22,700 1,500 Climbing Denver Center
02:58PM 42.1839 -106.2525 179° South 396 456 24,200 1,260 Climbing Denver Center
02:59PM 42.0747 -106.2519 180° South 406 467 25,300 1,020 Climbing Denver Center
03:00PM 41.9472 -106.2503 179° South 410 472 26,300 1,020 Climbing Denver Center
03:01PM 41.8325 -106.2486 179° South 423 487 27,500 1,260 Climbing Denver Center
03:02PM 41.7228 -106.2464 179° South 416 479 29,000 720 Climbing Denver Center
03:03PM 41.5908 -106.2458 180° South 422 486 29,000  Level Denver Center
03:04PM 41.4731 -106.2425 179° South 438 504 29,000  Level Denver Center
03:05PM 41.3419 -106.1933 164° South 440 506 29,000  Level Denver Center
03:06PM 41.2328 -106.1475 162° South 434 499 29,000  Level Denver Center
03:07PM 41.1219 -106.1006 162° South 436 502 29,000 -240 Level Denver Center
03:08PM 40.9658 -106.0111 157° South 447 514 28,500 -660 Descending Denver Center
03:09PM 40.8656 -105.9164 144° Southeast 444 511 27,700 -660 Descending Denver Center
03:10PM 40.7906 -105.7783 126° Southeast 454 522 27,200 -1,260 Descending Denver Center
03:11PM 40.7192 -105.6461 125° Southeast 443 510 25,200 -2,040 Descending Denver Center
03:12PM 40.6497 -105.5217 126° Southeast 422 486 23,100 -1,920 Descending Denver Center
03:13PM 40.5847 -105.4044 126° Southeast 399 459 21,400 -1,740 Descending Denver Center
03:14PM 40.5231 -105.2914 126° Southeast 378 435 19,600 -1,860 Descending Denver Center
03:15PM 40.4733 -105.1686 118° Southeast 346 398 17,700 -1,620 Descending Denver Center
03:16PM 40.4400 -105.0542 111° Southeast 334 384 16,400 -1,500 Descending Denver Center
03:17PM 40.4028 -104.9450 114° Southeast 333 383 14,700 -1,620 Descending Denver Center
03:18PM 40.3572 -104.8489 122° Southeast 315 362 13,200 -1,560 Descending Denver Center
03:19PM 40.2761 -104.7994 155° Southeast 297 342 11,600 -1,560 Descending Denver Center
03:20PM 40.1992 -104.7728 165° South 283 326 10,100 -1,260 Descending Denver Center
03:21PM 40.1236 -104.7453 164° South 279 321 9,100 -780 Descending Denver Center
03:22PM 40.0467 -104.7069 159° South 273 314 8,600 -840 Descending Denver Center
03:23PM 39.9911 -104.6872 165° South 211 243 7,500 -1,140 Descending Denver Center